sensor_id;sensor_type;location;lat;lon;timestamp;P1;durP1;ratioP1;P2;durP2;ratioP2
11139;SDS011;5624;49.388;11.350;2023-02-13T00:00:44;3.83;;;2.37;;
11139;SDS011;5624;49.388;11.350;2023-02-13T00:03:10;3.70;;;2.63;;
11139;SDS011;5624;49.388;11.350;2023-02-13T00:05:35;7.00;;;3.73;;
11139;SDS011;5624;49.388;11.350;2023-02-13T00:08:01;19.97;;;9.87;;
11139;SDS011;5624;49.388;11.350;2023-02-13T00:10:27;12.93;;;6.83;;
11139;SDS011;5624;49.388;11.350;2023-02-13T00:12:52;34.80;;;15.87;;
11139;SDS011;5624;49.388;11.350;2023-02-13T00:15:18;30.40;;;16.70;;
11139;SDS011;5624;49.388;11.350;2023-02-13T00:17:43;37.97;;;20.53;;
11139;SDS011;5624;49.388;11.350;2023-02-13T00:20:09;16.03;;;8.37;;
11139;SDS011;5624;49.388;11.350;2023-02-13T00:22:37;11.77;;;7.13;;
11139;SDS011;5624;49.388;11.350;2023-02-13T00:25:03;11.57;;;6.17;;
11139;SDS011;5624;49.388;11.350;2023-02-13T00:27:30;20.63;;;12.93;;
11139;SDS011;5624;49.388;11.350;2023-02-13T00:29:56;7.20;;;4.00;;
11139;SDS011;5624;49.388;11.350;2023-02-13T00:32:21;5.83;;;3.50;;
11139;SDS011;5624;49.388;11.350;2023-02-13T00:34:47;4.97;;;3.50;;
11139;SDS011;5624;49.388;11.350;2023-02-13T00:37:12;5.40;;;3.20;;
11139;SDS011;5624;49.388;11.350;2023-02-13T00:39:38;4.13;;;2.90;;
11139;SDS011;5624;49.388;11.350;2023-02-13T00:42:04;3.93;;;2.60;;
11139;SDS011;5624;49.388;11.350;2023-02-13T00:44:30;6.70;;;4.43;;
11139;SDS011;5624;49.388;11.350;2023-02-13T00:46:55;11.13;;;6.17;;
11139;SDS011;5624;49.388;11.350;2023-02-13T00:49:21;14.27;;;6.93;;
11139;SDS011;5624;49.388;11.350;2023-02-13T00:51:47;11.97;;;6.80;;
11139;SDS011;5624;49.388;11.350;2023-02-13T00:54:12;4.17;;;3.00;;
11139;SDS011;5624;49.388;11.350;2023-02-13T00:56:38;4.93;;;3.63;;
11139;SDS011;5624;49.388;11.350;2023-02-13T00:59:03;4.63;;;3.37;;
11139;SDS011;5624;49.388;11.350;2023-02-13T01:01:29;5.70;;;3.30;;
11139;SDS011;5624;49.388;11.350;2023-02-13T01:03:54;13.37;;;8.03;;
11139;SDS011;5624;49.388;11.350;2023-02-13T01:06:20;5.40;;;3.57;;
11139;SDS011;5624;49.388;11.350;2023-02-13T01:08:46;5.10;;;3.40;;
11139;SDS011;5624;49.388;11.350;2023-02-13T01:11:11;5.00;;;3.50;;
11139;SDS011;5624;49.388;11.350;2023-02-13T01:13:37;4.73;;;3.10;;
11139;SDS011;5624;49.388;11.350;2023-02-13T01:16:03;5.60;;;3.00;;
11139;SDS011;5624;49.388;11.350;2023-02-13T01:18:29;6.83;;;3.87;;
11139;SDS011;5624;49.388;11.350;2023-02-13T01:21:05;5.77;;;3.63;;
11139;SDS011;5624;49.388;11.350;2023-02-13T01:23:33;5.90;;;4.13;;
11139;SDS011;5624;49.388;11.350;2023-02-13T01:26:02;8.90;;;4.97;;
11139;SDS011;5624;49.388;11.350;2023-02-13T01:28:29;7.80;;;5.33;;
11139;SDS011;5624;49.388;11.350;2023-02-13T01:30:55;9.13;;;5.70;;
11139;SDS011;5624;49.388;11.350;2023-02-13T01:33:22;6.00;;;3.37;;
11139;SDS011;5624;49.388;11.350;2023-02-13T01:35:48;6.10;;;3.20;;
11139;SDS011;5624;49.388;11.350;2023-02-13T01:38:14;3.60;;;3.17;;
11139;SDS011;5624;49.388;11.350;2023-02-13T01:40:47;6.57;;;3.23;;
11139;SDS011;5624;49.388;11.350;2023-02-13T01:43:18;4.43;;;3.37;;
11139;SDS011;5624;49.388;11.350;2023-02-13T01:45:47;4.97;;;3.60;;
11139;SDS011;5624;49.388;11.350;2023-02-13T01:48:18;4.43;;;3.27;;
11139;SDS011;5624;49.388;11.350;2023-02-13T01:50:49;4.73;;;3.23;;
11139;SDS011;5624;49.388;11.350;2023-02-13T01:53:24;6.33;;;3.77;;
11139;SDS011;5624;49.388;11.350;2023-02-13T01:55:56;5.63;;;3.40;;
11139;SDS011;5624;49.388;11.350;2023-02-13T01:58:32;5.00;;;3.23;;
11139;SDS011;5624;49.388;11.350;2023-02-13T02:01:00;6.97;;;3.60;;
11139;SDS011;5624;49.388;11.350;2023-02-13T02:03:29;6.27;;;3.67;;
11139;SDS011;5624;49.388;11.350;2023-02-13T02:06:01;6.77;;;3.97;;
11139;SDS011;5624;49.388;11.350;2023-02-13T02:08:28;5.47;;;3.30;;
11139;SDS011;5624;49.388;11.350;2023-02-13T02:10:56;6.70;;;3.53;;
11139;SDS011;5624;49.388;11.350;2023-02-13T02:13:30;4.33;;;3.33;;
11139;SDS011;5624;49.388;11.350;2023-02-13T02:15:56;6.90;;;3.70;;
11139;SDS011;5624;49.388;11.350;2023-02-13T02:18:22;5.97;;;3.40;;
11139;SDS011;5624;49.388;11.350;2023-02-13T02:34:55;7.00;;;4.10;;
11139;SDS011;5624;49.388;11.350;2023-02-13T02:37:44;7.70;;;4.60;;
11139;SDS011;5624;49.388;11.350;2023-02-13T02:40:34;6.00;;;4.00;;
11139;SDS011;5624;49.388;11.350;2023-02-13T02:48:22;7.17;;;4.37;;
11139;SDS011;5624;49.388;11.350;2023-02-13T02:54:28;10.73;;;5.70;;
11139;SDS011;5624;49.388;11.350;2023-02-13T02:57:27;9.40;;;6.07;;
11139;SDS011;5624;49.388;11.350;2023-02-13T03:00:16;6.40;;;5.70;;
11139;SDS011;5624;49.388;11.350;2023-02-13T03:03:08;6.37;;;4.23;;
11139;SDS011;5624;49.388;11.350;2023-02-13T03:06:03;8.67;;;6.07;;
11139;SDS011;5624;49.388;11.350;2023-02-13T03:08:50;8.97;;;6.00;;
11139;SDS011;5624;49.388;11.350;2023-02-13T03:11:36;6.73;;;4.37;;
11139;SDS011;5624;49.388;11.350;2023-02-13T03:14:21;5.93;;;3.97;;
11139;SDS011;5624;49.388;11.350;2023-02-13T03:16:50;7.80;;;5.07;;
11139;SDS011;5624;49.388;11.350;2023-02-13T03:22:25;6.60;;;4.40;;
11139;SDS011;5624;49.388;11.350;2023-02-13T03:24:59;6.37;;;4.30;;
11139;SDS011;5624;49.388;11.350;2023-02-13T03:28:00;9.40;;;6.43;;
11139;SDS011;5624;49.388;11.350;2023-02-13T03:31:04;8.70;;;6.30;;
11139;SDS011;5624;49.388;11.350;2023-02-13T03:33:49;8.80;;;6.07;;
11139;SDS011;5624;49.388;11.350;2023-02-13T03:42:08;8.50;;;4.83;;
11139;SDS011;5624;49.388;11.350;2023-02-13T03:47:05;8.43;;;4.83;;
11139;SDS011;5624;49.388;11.350;2023-02-13T03:49:35;8.10;;;4.90;;
11139;SDS011;5624;49.388;11.350;2023-02-13T03:52:34;8.10;;;4.97;;
11139;SDS011;5624;49.388;11.350;2023-02-13T03:55:12;8.30;;;5.30;;
11139;SDS011;5624;49.388;11.350;2023-02-13T03:58:09;10.33;;;7.30;;
11139;SDS011;5624;49.388;11.350;2023-02-13T04:00:58;8.33;;;6.77;;
11139;SDS011;5624;49.388;11.350;2023-02-13T04:03:32;8.37;;;6.37;;
11139;SDS011;5624;49.388;11.350;2023-02-13T04:06:04;10.93;;;7.10;;
11139;SDS011;5624;49.388;11.350;2023-02-13T04:08:34;9.53;;;6.43;;
11139;SDS011;5624;49.388;11.350;2023-02-13T04:11:06;9.00;;;5.30;;
11139;SDS011;5624;49.388;11.350;2023-02-13T04:13:37;8.93;;;5.87;;
11139;SDS011;5624;49.388;11.350;2023-02-13T04:16:09;8.07;;;5.77;;
11139;SDS011;5624;49.388;11.350;2023-02-13T04:18:40;8.87;;;5.83;;
11139;SDS011;5624;49.388;11.350;2023-02-13T04:21:07;9.43;;;5.73;;
11139;SDS011;5624;49.388;11.350;2023-02-13T04:23:33;9.30;;;5.57;;
11139;SDS011;5624;49.388;11.350;2023-02-13T04:25:59;9.17;;;5.70;;
11139;SDS011;5624;49.388;11.350;2023-02-13T04:28:28;9.20;;;5.90;;
11139;SDS011;5624;49.388;11.350;2023-02-13T04:30:54;11.07;;;6.87;;
11139;SDS011;5624;49.388;11.350;2023-02-13T04:33:21;10.87;;;6.17;;
11139;SDS011;5624;49.388;11.350;2023-02-13T04:35:46;10.73;;;5.97;;
11139;SDS011;5624;49.388;11.350;2023-02-13T04:38:12;9.23;;;6.00;;
11139;SDS011;5624;49.388;11.350;2023-02-13T04:40:37;10.67;;;6.37;;
11139;SDS011;5624;49.388;11.350;2023-02-13T04:43:03;14.53;;;7.27;;
11139;SDS011;5624;49.388;11.350;2023-02-13T04:45:29;10.20;;;8.00;;
11139;SDS011;5624;49.388;11.350;2023-02-13T04:47:55;10.90;;;7.37;;
11139;SDS011;5624;49.388;11.350;2023-02-13T04:50:21;11.67;;;7.93;;
11139;SDS011;5624;49.388;11.350;2023-02-13T04:52:49;11.40;;;7.47;;
11139;SDS011;5624;49.388;11.350;2023-02-13T04:55:18;13.17;;;7.57;;
11139;SDS011;5624;49.388;11.350;2023-02-13T04:57:44;10.60;;;8.13;;
11139;SDS011;5624;49.388;11.350;2023-02-13T05:00:10;13.60;;;7.00;;
11139;SDS011;5624;49.388;11.350;2023-02-13T05:02:36;11.87;;;7.97;;
11139;SDS011;5624;49.388;11.350;2023-02-13T05:05:01;11.90;;;7.73;;
11139;SDS011;5624;49.388;11.350;2023-02-13T05:07:27;11.07;;;6.60;;
11139;SDS011;5624;49.388;11.350;2023-02-13T05:09:53;12.73;;;7.40;;
11139;SDS011;5624;49.388;11.350;2023-02-13T05:12:18;10.93;;;7.00;;
11139;SDS011;5624;49.388;11.350;2023-02-13T05:14:44;12.07;;;7.40;;
11139;SDS011;5624;49.388;11.350;2023-02-13T05:17:09;12.87;;;8.17;;
11139;SDS011;5624;49.388;11.350;2023-02-13T05:19:35;15.33;;;8.83;;
11139;SDS011;5624;49.388;11.350;2023-02-13T05:22:00;12.20;;;8.00;;
11139;SDS011;5624;49.388;11.350;2023-02-13T05:24:44;14.87;;;8.40;;
11139;SDS011;5624;49.388;11.350;2023-02-13T05:27:10;13.77;;;8.23;;
11139;SDS011;5624;49.388;11.350;2023-02-13T05:29:35;14.23;;;8.83;;
11139;SDS011;5624;49.388;11.350;2023-02-13T05:32:01;14.00;;;8.40;;
11139;SDS011;5624;49.388;11.350;2023-02-13T05:34:27;13.13;;;7.80;;
11139;SDS011;5624;49.388;11.350;2023-02-13T05:36:53;13.47;;;8.67;;
11139;SDS011;5624;49.388;11.350;2023-02-13T05:39:19;11.83;;;7.30;;
11139;SDS011;5624;49.388;11.350;2023-02-13T05:41:45;15.33;;;8.77;;
11139;SDS011;5624;49.388;11.350;2023-02-13T05:44:12;14.77;;;8.37;;
11139;SDS011;5624;49.388;11.350;2023-02-13T05:46:38;14.97;;;9.60;;
11139;SDS011;5624;49.388;11.350;2023-02-13T05:49:05;17.10;;;9.00;;
11139;SDS011;5624;49.388;11.350;2023-02-13T05:51:31;13.20;;;9.07;;
11139;SDS011;5624;49.388;11.350;2023-02-13T05:53:56;13.47;;;7.97;;
11139;SDS011;5624;49.388;11.350;2023-02-13T05:56:22;13.97;;;7.77;;
11139;SDS011;5624;49.388;11.350;2023-02-13T05:58:52;12.97;;;7.83;;
11139;SDS011;5624;49.388;11.350;2023-02-13T06:01:19;12.30;;;7.57;;
11139;SDS011;5624;49.388;11.350;2023-02-13T06:03:45;13.20;;;8.63;;
11139;SDS011;5624;49.388;11.350;2023-02-13T06:06:11;11.97;;;7.90;;
11139;SDS011;5624;49.388;11.350;2023-02-13T06:08:37;14.90;;;9.63;;
11139;SDS011;5624;49.388;11.350;2023-02-13T06:11:02;15.90;;;9.37;;
11139;SDS011;5624;49.388;11.350;2023-02-13T06:13:28;15.13;;;9.00;;
11139;SDS011;5624;49.388;11.350;2023-02-13T06:15:54;13.03;;;8.83;;
11139;SDS011;5624;49.388;11.350;2023-02-13T06:18:20;14.93;;;8.70;;
11139;SDS011;5624;49.388;11.350;2023-02-13T06:20:46;16.73;;;8.63;;
11139;SDS011;5624;49.388;11.350;2023-02-13T06:23:11;15.10;;;9.43;;
11139;SDS011;5624;49.388;11.350;2023-02-13T06:25:37;16.70;;;9.43;;
11139;SDS011;5624;49.388;11.350;2023-02-13T06:28:03;18.50;;;9.70;;
11139;SDS011;5624;49.388;11.350;2023-02-13T06:30:29;12.63;;;8.33;;
11139;SDS011;5624;49.388;11.350;2023-02-13T06:32:55;16.70;;;9.13;;
11139;SDS011;5624;49.388;11.350;2023-02-13T06:35:21;16.03;;;10.23;;
11139;SDS011;5624;49.388;11.350;2023-02-13T06:37:47;15.93;;;9.50;;
11139;SDS011;5624;49.388;11.350;2023-02-13T06:40:13;14.87;;;9.93;;
11139;SDS011;5624;49.388;11.350;2023-02-13T06:42:43;14.10;;;9.77;;
11139;SDS011;5624;49.388;11.350;2023-02-13T06:45:09;18.37;;;10.30;;
11139;SDS011;5624;49.388;11.350;2023-02-13T06:47:39;17.33;;;12.73;;
11139;SDS011;5624;49.388;11.350;2023-02-13T06:50:06;19.77;;;14.00;;
11139;SDS011;5624;49.388;11.350;2023-02-13T06:52:31;18.63;;;12.43;;
11139;SDS011;5624;49.388;11.350;2023-02-13T06:54:57;16.50;;;11.13;;
11139;SDS011;5624;49.388;11.350;2023-02-13T06:57:22;14.27;;;8.43;;
11139;SDS011;5624;49.388;11.350;2023-02-13T06:59:48;17.60;;;9.93;;
11139;SDS011;5624;49.388;11.350;2023-02-13T07:02:14;17.57;;;10.80;;
11139;SDS011;5624;49.388;11.350;2023-02-13T07:04:39;16.83;;;10.17;;
11139;SDS011;5624;49.388;11.350;2023-02-13T07:07:05;19.23;;;11.63;;
11139;SDS011;5624;49.388;11.350;2023-02-13T07:09:31;21.53;;;12.13;;
11139;SDS011;5624;49.388;11.350;2023-02-13T07:11:57;22.23;;;12.47;;
11139;SDS011;5624;49.388;11.350;2023-02-13T07:14:22;18.40;;;10.67;;
11139;SDS011;5624;49.388;11.350;2023-02-13T07:16:48;19.70;;;11.60;;
11139;SDS011;5624;49.388;11.350;2023-02-13T07:19:14;21.57;;;11.40;;
11139;SDS011;5624;49.388;11.350;2023-02-13T07:21:39;21.20;;;11.40;;
11139;SDS011;5624;49.388;11.350;2023-02-13T07:24:05;20.47;;;10.87;;
11139;SDS011;5624;49.388;11.350;2023-02-13T07:26:30;18.67;;;10.13;;
11139;SDS011;5624;49.388;11.350;2023-02-13T07:28:56;18.37;;;10.20;;
11139;SDS011;5624;49.388;11.350;2023-02-13T07:31:22;19.23;;;11.30;;
11139;SDS011;5624;49.388;11.350;2023-02-13T07:33:47;16.47;;;10.13;;
11139;SDS011;5624;49.388;11.350;2023-02-13T07:36:13;22.00;;;11.77;;
11139;SDS011;5624;49.388;11.350;2023-02-13T07:38:39;22.37;;;12.70;;
11139;SDS011;5624;49.388;11.350;2023-02-13T07:41:05;18.43;;;11.53;;
11139;SDS011;5624;49.388;11.350;2023-02-13T07:43:30;19.00;;;11.00;;
11139;SDS011;5624;49.388;11.350;2023-02-13T07:45:59;17.53;;;10.27;;
11139;SDS011;5624;49.388;11.350;2023-02-13T07:48:26;16.07;;;9.47;;
11139;SDS011;5624;49.388;11.350;2023-02-13T07:50:54;17.13;;;10.77;;
11139;SDS011;5624;49.388;11.350;2023-02-13T07:53:23;14.83;;;9.07;;
11139;SDS011;5624;49.388;11.350;2023-02-13T07:55:49;13.17;;;9.07;;
11139;SDS011;5624;49.388;11.350;2023-02-13T07:58:14;16.03;;;9.90;;
11139;SDS011;5624;49.388;11.350;2023-02-13T08:00:40;14.50;;;9.17;;
11139;SDS011;5624;49.388;11.350;2023-02-13T08:03:05;15.00;;;9.37;;
11139;SDS011;5624;49.388;11.350;2023-02-13T08:05:31;14.23;;;9.93;;
11139;SDS011;5624;49.388;11.350;2023-02-13T08:07:58;12.60;;;9.40;;
11139;SDS011;5624;49.388;11.350;2023-02-13T08:10:23;14.23;;;9.80;;
11139;SDS011;5624;49.388;11.350;2023-02-13T08:13:08;11.30;;;8.20;;
11139;SDS011;5624;49.388;11.350;2023-02-13T08:15:35;14.03;;;9.40;;
11139;SDS011;5624;49.388;11.350;2023-02-13T08:18:01;14.20;;;9.20;;
11139;SDS011;5624;49.388;11.350;2023-02-13T08:20:27;14.17;;;10.03;;
11139;SDS011;5624;49.388;11.350;2023-02-13T08:22:52;11.53;;;8.20;;
11139;SDS011;5624;49.388;11.350;2023-02-13T08:25:18;11.23;;;8.27;;
11139;SDS011;5624;49.388;11.350;2023-02-13T08:27:45;11.87;;;8.40;;
11139;SDS011;5624;49.388;11.350;2023-02-13T08:30:11;11.47;;;8.63;;
11139;SDS011;5624;49.388;11.350;2023-02-13T08:32:37;11.07;;;8.57;;
11139;SDS011;5624;49.388;11.350;2023-02-13T08:35:02;11.17;;;8.27;;
11139;SDS011;5624;49.388;11.350;2023-02-13T08:37:28;12.27;;;7.53;;
11139;SDS011;5624;49.388;11.350;2023-02-13T08:39:54;10.37;;;8.03;;
11139;SDS011;5624;49.388;11.350;2023-02-13T08:42:19;11.10;;;7.77;;
11139;SDS011;5624;49.388;11.350;2023-02-13T08:44:45;10.13;;;7.57;;
11139;SDS011;5624;49.388;11.350;2023-02-13T08:47:11;13.90;;;8.90;;
11139;SDS011;5624;49.388;11.350;2023-02-13T08:49:36;10.53;;;7.73;;
11139;SDS011;5624;49.388;11.350;2023-02-13T08:52:02;11.97;;;8.30;;
11139;SDS011;5624;49.388;11.350;2023-02-13T08:54:28;13.50;;;8.77;;
11139;SDS011;5624;49.388;11.350;2023-02-13T08:56:54;11.20;;;8.00;;
11139;SDS011;5624;49.388;11.350;2023-02-13T08:59:20;11.57;;;7.97;;
11139;SDS011;5624;49.388;11.350;2023-02-13T09:01:45;16.57;;;10.37;;
11139;SDS011;5624;49.388;11.350;2023-02-13T09:04:11;12.93;;;7.90;;
11139;SDS011;5624;49.388;11.350;2023-02-13T09:06:40;12.20;;;8.87;;
11139;SDS011;5624;49.388;11.350;2023-02-13T09:09:06;12.40;;;8.40;;
11139;SDS011;5624;49.388;11.350;2023-02-13T09:11:32;11.20;;;8.67;;
11139;SDS011;5624;49.388;11.350;2023-02-13T09:13:58;11.63;;;7.97;;
11139;SDS011;5624;49.388;11.350;2023-02-13T09:16:23;12.97;;;9.03;;
11139;SDS011;5624;49.388;11.350;2023-02-13T09:18:49;14.97;;;9.83;;
11139;SDS011;5624;49.388;11.350;2023-02-13T09:21:16;13.77;;;10.17;;
11139;SDS011;5624;49.388;11.350;2023-02-13T09:23:44;12.37;;;9.30;;
11139;SDS011;5624;49.388;11.350;2023-02-13T09:26:11;16.17;;;9.70;;
11139;SDS011;5624;49.388;11.350;2023-02-13T09:28:38;14.33;;;9.67;;
11139;SDS011;5624;49.388;11.350;2023-02-13T09:31:14;23.80;;;16.20;;
11139;SDS011;5624;49.388;11.350;2023-02-13T09:33:45;14.80;;;11.57;;
11139;SDS011;5624;49.388;11.350;2023-02-13T09:36:13;11.60;;;8.10;;
11139;SDS011;5624;49.388;11.350;2023-02-13T09:38:43;17.03;;;12.47;;
11139;SDS011;5624;49.388;11.350;2023-02-13T09:41:14;14.17;;;8.87;;
11139;SDS011;5624;49.388;11.350;2023-02-13T09:46:09;25.20;;;15.07;;
11139;SDS011;5624;49.388;11.350;2023-02-13T09:48:39;11.53;;;7.70;;
11139;SDS011;5624;49.388;11.350;2023-02-13T09:51:09;20.03;;;11.67;;
11139;SDS011;5624;49.388;11.350;2023-02-13T09:53:45;11.30;;;7.47;;
11139;SDS011;5624;49.388;11.350;2023-02-13T09:56:22;22.90;;;15.00;;
11139;SDS011;5624;49.388;11.350;2023-02-13T10:04:54;13.07;;;8.80;;
11139;SDS011;5624;49.388;11.350;2023-02-13T10:07:32;9.17;;;5.90;;
11139;SDS011;5624;49.388;11.350;2023-02-13T10:18:27;17.90;;;11.00;;
11139;SDS011;5624;49.388;11.350;2023-02-13T10:21:00;4.83;;;3.47;;
11139;SDS011;5624;49.388;11.350;2023-02-13T10:23:32;7.30;;;4.93;;
11139;SDS011;5624;49.388;11.350;2023-02-13T10:26:05;5.00;;;3.53;;
11139;SDS011;5624;49.388;11.350;2023-02-13T10:28:41;5.13;;;3.77;;
11139;SDS011;5624;49.388;11.350;2023-02-13T10:31:16;23.33;;;12.23;;
11139;SDS011;5624;49.388;11.350;2023-02-13T10:33:50;17.07;;;9.47;;
11139;SDS011;5624;49.388;11.350;2023-02-13T10:38:51;5.27;;;4.10;;
11139;SDS011;5624;49.388;11.350;2023-02-13T10:41:24;4.60;;;3.33;;
11139;SDS011;5624;49.388;11.350;2023-02-13T10:58:40;8.37;;;5.03;;
11139;SDS011;5624;49.388;11.350;2023-02-13T11:06:28;7.73;;;5.03;;
11139;SDS011;5624;49.388;11.350;2023-02-13T11:08:54;6.03;;;4.73;;
11139;SDS011;5624;49.388;11.350;2023-02-13T11:16:52;7.20;;;5.23;;
11139;SDS011;5624;49.388;11.350;2023-02-13T11:19:36;7.23;;;5.40;;
11139;SDS011;5624;49.388;11.350;2023-02-13T11:22:11;6.07;;;3.83;;
11139;SDS011;5624;49.388;11.350;2023-02-13T11:24:40;7.73;;;5.10;;
11139;SDS011;5624;49.388;11.350;2023-02-13T11:27:14;7.60;;;5.13;;
11139;SDS011;5624;49.388;11.350;2023-02-13T11:29:50;8.37;;;5.07;;
11139;SDS011;5624;49.388;11.350;2023-02-13T11:32:20;6.60;;;4.60;;
11139;SDS011;5624;49.388;11.350;2023-02-13T11:34:46;5.73;;;4.53;;
11139;SDS011;5624;49.388;11.350;2023-02-13T11:37:16;7.80;;;4.73;;
11139;SDS011;5624;49.388;11.350;2023-02-13T11:39:42;6.80;;;4.77;;
11139;SDS011;5624;49.388;11.350;2023-02-13T11:42:12;8.43;;;5.03;;
11139;SDS011;5624;49.388;11.350;2023-02-13T11:44:43;5.10;;;3.77;;
11139;SDS011;5624;49.388;11.350;2023-02-13T11:47:13;5.20;;;4.17;;
11139;SDS011;5624;49.388;11.350;2023-02-13T11:49:43;6.17;;;4.23;;
11139;SDS011;5624;49.388;11.350;2023-02-13T11:52:32;5.80;;;4.20;;
11139;SDS011;5624;49.388;11.350;2023-02-13T11:54:59;6.00;;;4.40;;
11139;SDS011;5624;49.388;11.350;2023-02-13T11:57:30;5.67;;;4.70;;
11139;SDS011;5624;49.388;11.350;2023-02-13T11:59:58;5.57;;;4.40;;
11139;SDS011;5624;49.388;11.350;2023-02-13T12:02:27;6.80;;;4.10;;
11139;SDS011;5624;49.388;11.350;2023-02-13T12:05:15;4.53;;;4.03;;
11139;SDS011;5624;49.388;11.350;2023-02-13T12:07:45;5.83;;;4.63;;
11139;SDS011;5624;49.388;11.350;2023-02-13T12:12:57;6.80;;;4.67;;
11139;SDS011;5624;49.388;11.350;2023-02-13T12:15:35;7.30;;;4.50;;
11139;SDS011;5624;49.388;11.350;2023-02-13T12:18:03;5.97;;;4.50;;
11139;SDS011;5624;49.388;11.350;2023-02-13T12:23:49;8.17;;;5.20;;
11139;SDS011;5624;49.388;11.350;2023-02-13T12:26:32;7.23;;;5.03;;
11139;SDS011;5624;49.388;11.350;2023-02-13T12:29:27;6.47;;;5.00;;
11139;SDS011;5624;49.388;11.350;2023-02-13T12:32:16;5.67;;;4.10;;
11139;SDS011;5624;49.388;11.350;2023-02-13T12:37:50;6.87;;;4.27;;
11139;SDS011;5624;49.388;11.350;2023-02-13T12:46:13;9.00;;;5.90;;
11139;SDS011;5624;49.388;11.350;2023-02-13T12:51:50;7.53;;;5.70;;
11139;SDS011;5624;49.388;11.350;2023-02-13T13:22:40;7.23;;;5.60;;
11139;SDS011;5624;49.388;11.350;2023-02-13T13:25:21;6.73;;;5.30;;
11139;SDS011;5624;49.388;11.350;2023-02-13T13:27:59;6.07;;;4.67;;
11139;SDS011;5624;49.388;11.350;2023-02-13T13:30:30;6.37;;;4.90;;
11139;SDS011;5624;49.388;11.350;2023-02-13T13:33:02;7.93;;;6.10;;
11139;SDS011;5624;49.388;11.350;2023-02-13T13:35:54;7.13;;;5.20;;
11139;SDS011;5624;49.388;11.350;2023-02-13T13:43:56;7.23;;;4.73;;
11139;SDS011;5624;49.388;11.350;2023-02-13T13:52:09;7.33;;;5.67;;
11139;SDS011;5624;49.388;11.350;2023-02-13T13:54:46;16.93;;;10.60;;
11139;SDS011;5624;49.388;11.350;2023-02-13T13:57:16;14.17;;;9.40;;
11139;SDS011;5624;49.388;11.350;2023-02-13T14:07:47;15.67;;;10.47;;
11139;SDS011;5624;49.388;11.350;2023-02-13T14:12:47;10.20;;;7.17;;
11139;SDS011;5624;49.388;11.350;2023-02-13T14:17:58;8.47;;;5.93;;
11139;SDS011;5624;49.388;11.350;2023-02-13T14:20:39;10.43;;;7.03;;
11139;SDS011;5624;49.388;11.350;2023-02-13T14:23:26;9.27;;;6.10;;
11139;SDS011;5624;49.388;11.350;2023-02-13T14:31:24;9.80;;;6.00;;
11139;SDS011;5624;49.388;11.350;2023-02-13T14:34:01;6.03;;;5.17;;
11139;SDS011;5624;49.388;11.350;2023-02-13T14:36:30;7.73;;;5.60;;
11139;SDS011;5624;49.388;11.350;2023-02-13T14:39:02;6.80;;;5.57;;
11139;SDS011;5624;49.388;11.350;2023-02-13T14:44:43;7.77;;;5.37;;
11139;SDS011;5624;49.388;11.350;2023-02-13T14:47:48;8.47;;;5.27;;
11139;SDS011;5624;49.388;11.350;2023-02-13T14:53:06;7.77;;;6.07;;
11139;SDS011;5624;49.388;11.350;2023-02-13T14:55:40;8.73;;;6.10;;
11139;SDS011;5624;49.388;11.350;2023-02-13T14:58:14;7.63;;;6.27;;
11139;SDS011;5624;49.388;11.350;2023-02-13T15:03:26;7.83;;;5.37;;
11139;SDS011;5624;49.388;11.350;2023-02-13T15:05:58;10.67;;;6.77;;
11139;SDS011;5624;49.388;11.350;2023-02-13T15:08:29;7.37;;;5.67;;
11139;SDS011;5624;49.388;11.350;2023-02-13T15:10:59;8.27;;;5.50;;
11139;SDS011;5624;49.388;11.350;2023-02-13T15:13:31;8.43;;;5.80;;
11139;SDS011;5624;49.388;11.350;2023-02-13T15:15:59;8.23;;;6.13;;
11139;SDS011;5624;49.388;11.350;2023-02-13T15:21:08;7.73;;;5.53;;
11139;SDS011;5624;49.388;11.350;2023-02-13T15:23:42;7.10;;;5.60;;
11139;SDS011;5624;49.388;11.350;2023-02-13T15:26:16;8.53;;;5.67;;
11139;SDS011;5624;49.388;11.350;2023-02-13T15:28:56;8.63;;;5.80;;
11139;SDS011;5624;49.388;11.350;2023-02-13T15:31:23;9.03;;;6.30;;
11139;SDS011;5624;49.388;11.350;2023-02-13T15:33:49;10.10;;;6.73;;
11139;SDS011;5624;49.388;11.350;2023-02-13T15:36:22;12.17;;;7.73;;
11139;SDS011;5624;49.388;11.350;2023-02-13T15:38:57;14.50;;;8.83;;
11139;SDS011;5624;49.388;11.350;2023-02-13T15:41:33;9.67;;;7.13;;
11139;SDS011;5624;49.388;11.350;2023-02-13T15:44:02;10.10;;;6.90;;
11139;SDS011;5624;49.388;11.350;2023-02-13T15:46:29;12.67;;;8.07;;
11139;SDS011;5624;49.388;11.350;2023-02-13T15:49:00;24.50;;;14.53;;
11139;SDS011;5624;49.388;11.350;2023-02-13T15:51:30;21.13;;;14.33;;
11139;SDS011;5624;49.388;11.350;2023-02-13T15:53:57;13.47;;;9.53;;
11139;SDS011;5624;49.388;11.350;2023-02-13T15:56:24;10.63;;;7.20;;
11139;SDS011;5624;49.388;11.350;2023-02-13T15:58:51;9.40;;;6.87;;
11139;SDS011;5624;49.388;11.350;2023-02-13T16:01:18;14.23;;;9.23;;
11139;SDS011;5624;49.388;11.350;2023-02-13T16:03:45;11.13;;;7.57;;
11139;SDS011;5624;49.388;11.350;2023-02-13T16:06:16;13.27;;;8.30;;
11139;SDS011;5624;49.388;11.350;2023-02-13T16:08:50;13.67;;;7.30;;
11139;SDS011;5624;49.388;11.350;2023-02-13T16:16:42;12.67;;;7.97;;
11139;SDS011;5624;49.388;11.350;2023-02-13T16:19:36;13.47;;;9.10;;
11139;SDS011;5624;49.388;11.350;2023-02-13T16:24:50;12.23;;;8.30;;
11139;SDS011;5624;49.388;11.350;2023-02-13T16:27:19;11.70;;;8.33;;
11139;SDS011;5624;49.388;11.350;2023-02-13T16:29:50;14.00;;;9.13;;
11139;SDS011;5624;49.388;11.350;2023-02-13T16:32:23;14.70;;;9.20;;
11139;SDS011;5624;49.388;11.350;2023-02-13T16:34:53;14.80;;;8.83;;
11139;SDS011;5624;49.388;11.350;2023-02-13T16:37:26;13.53;;;8.60;;
11139;SDS011;5624;49.388;11.350;2023-02-13T16:39:54;11.83;;;7.47;;
11139;SDS011;5624;49.388;11.350;2023-02-13T16:42:19;12.40;;;8.33;;
11139;SDS011;5624;49.388;11.350;2023-02-13T16:44:45;12.40;;;8.77;;
11139;SDS011;5624;49.388;11.350;2023-02-13T16:47:21;11.83;;;8.33;;
11139;SDS011;5624;49.388;11.350;2023-02-13T16:49:57;12.33;;;8.33;;
11139;SDS011;5624;49.388;11.350;2023-02-13T16:52:23;16.37;;;9.73;;
11139;SDS011;5624;49.388;11.350;2023-02-13T16:57:25;14.27;;;9.73;;
11139;SDS011;5624;49.388;11.350;2023-02-13T17:02:28;15.53;;;9.93;;
11139;SDS011;5624;49.388;11.350;2023-02-13T17:10:06;19.53;;;12.33;;
11139;SDS011;5624;49.388;11.350;2023-02-13T17:12:42;18.27;;;10.37;;
11139;SDS011;5624;49.388;11.350;2023-02-13T17:15:09;15.57;;;10.03;;
11139;SDS011;5624;49.388;11.350;2023-02-13T17:17:37;12.27;;;8.73;;
11139;SDS011;5624;49.388;11.350;2023-02-13T17:20:03;13.33;;;8.53;;
11139;SDS011;5624;49.388;11.350;2023-02-13T17:22:31;12.73;;;8.40;;
11139;SDS011;5624;49.388;11.350;2023-02-13T17:24:57;12.43;;;8.20;;
11139;SDS011;5624;49.388;11.350;2023-02-13T17:27:24;14.40;;;9.90;;
11139;SDS011;5624;49.388;11.350;2023-02-13T17:29:49;14.53;;;9.73;;
11139;SDS011;5624;49.388;11.350;2023-02-13T17:32:19;20.33;;;13.20;;
11139;SDS011;5624;49.388;11.350;2023-02-13T17:34:47;19.30;;;13.13;;
11139;SDS011;5624;49.388;11.350;2023-02-13T17:37:27;35.03;;;19.63;;
11139;SDS011;5624;49.388;11.350;2023-02-13T17:39:53;22.47;;;13.43;;
11139;SDS011;5624;49.388;11.350;2023-02-13T17:42:23;33.30;;;17.23;;
11139;SDS011;5624;49.388;11.350;2023-02-13T17:44:51;40.80;;;22.07;;
11139;SDS011;5624;49.388;11.350;2023-02-13T17:47:18;26.23;;;15.00;;
11139;SDS011;5624;49.388;11.350;2023-02-13T17:49:44;47.50;;;24.43;;
11139;SDS011;5624;49.388;11.350;2023-02-13T17:52:16;20.47;;;13.73;;
11139;SDS011;5624;49.388;11.350;2023-02-13T17:54:48;29.53;;;17.03;;
11139;SDS011;5624;49.388;11.350;2023-02-13T17:57:14;42.63;;;21.67;;
11139;SDS011;5624;49.388;11.350;2023-02-13T17:59:41;58.77;;;29.03;;